sensor_id;sensor_type;location;lat;lon;timestamp;P1;durP1;ratioP1;P2;durP2;ratioP2
58123;SDS011;46725;48.068;20.832;2022-07-30T00:00:03;6.78;;;3.70;;
58123;SDS011;46725;48.068;20.832;2022-07-30T00:02:30;6.47;;;3.60;;
58123;SDS011;46725;48.068;20.832;2022-07-30T00:04:56;6.30;;;4.03;;
58123;SDS011;46725;48.068;20.832;2022-07-30T00:07:22;6.35;;;3.70;;
58123;SDS011;46725;48.068;20.832;2022-07-30T00:09:48;5.47;;;3.73;;
58123;SDS011;46725;48.068;20.832;2022-07-30T00:12:14;5.75;;;3.50;;
58123;SDS011;46725;48.068;20.832;2022-07-30T00:14:40;6.60;;;3.83;;
58123;SDS011;46725;48.068;20.832;2022-07-30T00:17:06;5.97;;;3.75;;
58123;SDS011;46725;48.068;20.832;2022-07-30T00:19:32;5.53;;;3.70;;
58123;SDS011;46725;48.068;20.832;2022-07-30T00:21:58;6.63;;;3.85;;
58123;SDS011;46725;48.068;20.832;2022-07-30T00:24:24;5.43;;;3.50;;
58123;SDS011;46725;48.068;20.832;2022-07-30T00:26:50;5.70;;;3.60;;
58123;SDS011;46725;48.068;20.832;2022-07-30T00:29:16;5.50;;;3.53;;
58123;SDS011;46725;48.068;20.832;2022-07-30T00:31:43;5.30;;;3.60;;
58123;SDS011;46725;48.068;20.832;2022-07-30T00:34:09;7.47;;;3.77;;
58123;SDS011;46725;48.068;20.832;2022-07-30T00:36:37;6.13;;;3.60;;
58123;SDS011;46725;48.068;20.832;2022-07-30T00:39:03;6.22;;;3.50;;
58123;SDS011;46725;48.068;20.832;2022-07-30T00:41:29;5.43;;;3.67;;
58123;SDS011;46725;48.068;20.832;2022-07-30T00:43:55;5.90;;;3.80;;
58123;SDS011;46725;48.068;20.832;2022-07-30T00:46:21;5.55;;;3.45;;
58123;SDS011;46725;48.068;20.832;2022-07-30T00:48:47;7.38;;;4.25;;
58123;SDS011;46725;48.068;20.832;2022-07-30T00:51:13;6.32;;;4.10;;
58123;SDS011;46725;48.068;20.832;2022-07-30T00:53:39;5.47;;;3.67;;
58123;SDS011;46725;48.068;20.832;2022-07-30T00:56:05;6.40;;;3.70;;
58123;SDS011;46725;48.068;20.832;2022-07-30T00:58:31;8.70;;;4.60;;
58123;SDS011;46725;48.068;20.832;2022-07-30T01:00:57;6.60;;;4.20;;
58123;SDS011;46725;48.068;20.832;2022-07-30T01:03:23;7.17;;;4.30;;
58123;SDS011;46725;48.068;20.832;2022-07-30T01:05:49;7.93;;;4.28;;
58123;SDS011;46725;48.068;20.832;2022-07-30T01:08:15;8.07;;;4.20;;
58123;SDS011;46725;48.068;20.832;2022-07-30T01:10:42;8.17;;;4.17;;
58123;SDS011;46725;48.068;20.832;2022-07-30T01:13:08;7.15;;;4.30;;
58123;SDS011;46725;48.068;20.832;2022-07-30T01:15:34;7.25;;;4.05;;
58123;SDS011;46725;48.068;20.832;2022-07-30T01:18:01;6.50;;;4.40;;
58123;SDS011;46725;48.068;20.832;2022-07-30T01:20:31;6.50;;;4.45;;
58123;SDS011;46725;48.068;20.832;2022-07-30T01:26:06;8.90;;;4.43;;
58123;SDS011;46725;48.068;20.832;2022-07-30T01:28:14;8.65;;;4.47;;
58123;SDS011;46725;48.068;20.832;2022-07-30T01:30:41;7.25;;;4.25;;
58123;SDS011;46725;48.068;20.832;2022-07-30T01:33:13;7.65;;;4.40;;
58123;SDS011;46725;48.068;20.832;2022-07-30T01:35:40;5.82;;;4.10;;
58123;SDS011;46725;48.068;20.832;2022-07-30T01:38:07;7.63;;;4.83;;
58123;SDS011;46725;48.068;20.832;2022-07-30T01:40:35;8.53;;;4.80;;
58123;SDS011;46725;48.068;20.832;2022-07-30T01:43:02;7.13;;;5.10;;
58123;SDS011;46725;48.068;20.832;2022-07-30T01:45:29;8.32;;;4.50;;
58123;SDS011;46725;48.068;20.832;2022-07-30T01:47:57;7.85;;;4.60;;
58123;SDS011;46725;48.068;20.832;2022-07-30T01:50:24;7.63;;;4.60;;
58123;SDS011;46725;48.068;20.832;2022-07-30T01:52:51;8.13;;;4.60;;
58123;SDS011;46725;48.068;20.832;2022-07-30T01:55:40;8.20;;;4.80;;
58123;SDS011;46725;48.068;20.832;2022-07-30T01:58:05;8.65;;;4.82;;
58123;SDS011;46725;48.068;20.832;2022-07-30T02:00:33;8.17;;;4.47;;
58123;SDS011;46725;48.068;20.832;2022-07-30T02:03:01;7.15;;;4.40;;
58123;SDS011;46725;48.068;20.832;2022-07-30T02:05:28;8.30;;;4.63;;
58123;SDS011;46725;48.068;20.832;2022-07-30T02:08:06;8.20;;;4.50;;
58123;SDS011;46725;48.068;20.832;2022-07-30T02:10:40;9.33;;;4.90;;
58123;SDS011;46725;48.068;20.832;2022-07-30T02:13:06;12.20;;;5.18;;
58123;SDS011;46725;48.068;20.832;2022-07-30T02:18:06;8.20;;;4.20;;
58123;SDS011;46725;48.068;20.832;2022-07-30T02:20:32;9.50;;;5.40;;
58123;SDS011;46725;48.068;20.832;2022-07-30T02:23:00;7.17;;;4.23;;
58123;SDS011;46725;48.068;20.832;2022-07-30T02:25:28;9.15;;;4.82;;
58123;SDS011;46725;48.068;20.832;2022-07-30T02:27:57;9.05;;;5.05;;
58123;SDS011;46725;48.068;20.832;2022-07-30T02:30:26;6.88;;;4.15;;
58123;SDS011;46725;48.068;20.832;2022-07-30T02:32:58;9.25;;;4.97;;
58123;SDS011;46725;48.068;20.832;2022-07-30T02:35:25;9.95;;;4.70;;
58123;SDS011;46725;48.068;20.832;2022-07-30T02:37:52;7.67;;;4.53;;
58123;SDS011;46725;48.068;20.832;2022-07-30T02:40:19;6.43;;;4.17;;
58123;SDS011;46725;48.068;20.832;2022-07-30T02:42:48;7.85;;;4.47;;
58123;SDS011;46725;48.068;20.832;2022-07-30T02:45:14;8.80;;;5.30;;
58123;SDS011;46725;48.068;20.832;2022-07-30T02:47:41;7.20;;;4.60;;
58123;SDS011;46725;48.068;20.832;2022-07-30T02:50:08;8.43;;;4.95;;
58123;SDS011;46725;48.068;20.832;2022-07-30T02:52:35;7.50;;;4.73;;
58123;SDS011;46725;48.068;20.832;2022-07-30T02:55:02;10.00;;;5.00;;
58123;SDS011;46725;48.068;20.832;2022-07-30T02:57:29;9.63;;;4.70;;
58123;SDS011;46725;48.068;20.832;2022-07-30T02:59:56;7.70;;;4.70;;
58123;SDS011;46725;48.068;20.832;2022-07-30T03:02:23;7.18;;;4.35;;
58123;SDS011;46725;48.068;20.832;2022-07-30T03:04:49;7.90;;;4.57;;
58123;SDS011;46725;48.068;20.832;2022-07-30T03:07:18;9.23;;;5.15;;
58123;SDS011;46725;48.068;20.832;2022-07-30T03:09:44;8.30;;;4.37;;
58123;SDS011;46725;48.068;20.832;2022-07-30T03:12:11;7.95;;;4.80;;
58123;SDS011;46725;48.068;20.832;2022-07-30T03:14:39;7.07;;;4.30;;
58123;SDS011;46725;48.068;20.832;2022-07-30T03:17:05;7.70;;;4.40;;
58123;SDS011;46725;48.068;20.832;2022-07-30T03:19:32;11.20;;;4.70;;
58123;SDS011;46725;48.068;20.832;2022-07-30T03:22:01;11.85;;;5.35;;
58123;SDS011;46725;48.068;20.832;2022-07-30T03:24:27;7.75;;;4.53;;
58123;SDS011;46725;48.068;20.832;2022-07-30T03:26:55;8.38;;;4.57;;
58123;SDS011;46725;48.068;20.832;2022-07-30T03:29:21;7.40;;;4.17;;
58123;SDS011;46725;48.068;20.832;2022-07-30T03:31:48;8.60;;;4.13;;
58123;SDS011;46725;48.068;20.832;2022-07-30T03:34:14;6.78;;;4.57;;
58123;SDS011;46725;48.068;20.832;2022-07-30T03:36:41;8.00;;;3.70;;
58123;SDS011;46725;48.068;20.832;2022-07-30T03:39:07;9.30;;;4.90;;
58123;SDS011;46725;48.068;20.832;2022-07-30T03:41:34;7.45;;;4.32;;
58123;SDS011;46725;48.068;20.832;2022-07-30T03:44:01;9.20;;;4.45;;
58123;SDS011;46725;48.068;20.832;2022-07-30T03:46:27;7.55;;;4.10;;
58123;SDS011;46725;48.068;20.832;2022-07-30T03:48:54;7.10;;;4.13;;
58123;SDS011;46725;48.068;20.832;2022-07-30T03:51:21;9.75;;;4.47;;
58123;SDS011;46725;48.068;20.832;2022-07-30T03:53:47;8.40;;;4.72;;
58123;SDS011;46725;48.068;20.832;2022-07-30T03:56:15;7.22;;;4.05;;
58123;SDS011;46725;48.068;20.832;2022-07-30T03:58:41;9.75;;;4.65;;
58123;SDS011;46725;48.068;20.832;2022-07-30T04:01:07;7.53;;;4.30;;
58123;SDS011;46725;48.068;20.832;2022-07-30T04:03:33;7.67;;;5.10;;
58123;SDS011;46725;48.068;20.832;2022-07-30T04:05:59;8.88;;;4.07;;
58123;SDS011;46725;48.068;20.832;2022-07-30T04:08:26;10.68;;;4.28;;
58123;SDS011;46725;48.068;20.832;2022-07-30T04:10:52;8.77;;;4.45;;
58123;SDS011;46725;48.068;20.832;2022-07-30T04:13:18;8.40;;;4.80;;
58123;SDS011;46725;48.068;20.832;2022-07-30T04:18:10;7.93;;;5.00;;
58123;SDS011;46725;48.068;20.832;2022-07-30T04:20:41;9.00;;;4.47;;
58123;SDS011;46725;48.068;20.832;2022-07-30T04:23:08;6.85;;;4.40;;
58123;SDS011;46725;48.068;20.832;2022-07-30T04:25:35;7.78;;;4.57;;
58123;SDS011;46725;48.068;20.832;2022-07-30T04:28:03;7.97;;;5.13;;
58123;SDS011;46725;48.068;20.832;2022-07-30T04:30:29;8.73;;;4.50;;
58123;SDS011;46725;48.068;20.832;2022-07-30T04:32:57;9.30;;;4.87;;
58123;SDS011;46725;48.068;20.832;2022-07-30T04:35:30;9.47;;;4.80;;
58123;SDS011;46725;48.068;20.832;2022-07-30T04:37:56;8.35;;;5.05;;
58123;SDS011;46725;48.068;20.832;2022-07-30T04:40:22;9.40;;;5.30;;
58123;SDS011;46725;48.068;20.832;2022-07-30T04:42:49;9.13;;;4.47;;
58123;SDS011;46725;48.068;20.832;2022-07-30T04:45:15;6.75;;;4.45;;
58123;SDS011;46725;48.068;20.832;2022-07-30T04:47:44;7.20;;;4.30;;
58123;SDS011;46725;48.068;20.832;2022-07-30T04:50:10;6.90;;;4.30;;
58123;SDS011;46725;48.068;20.832;2022-07-30T04:52:37;8.70;;;4.60;;
58123;SDS011;46725;48.068;20.832;2022-07-30T04:55:04;8.05;;;4.15;;
58123;SDS011;46725;48.068;20.832;2022-07-30T04:57:31;8.77;;;4.47;;
58123;SDS011;46725;48.068;20.832;2022-07-30T04:59:58;7.40;;;4.60;;
58123;SDS011;46725;48.068;20.832;2022-07-30T05:02:26;9.10;;;4.00;;
58123;SDS011;46725;48.068;20.832;2022-07-30T05:04:54;8.10;;;4.50;;
58123;SDS011;46725;48.068;20.832;2022-07-30T05:07:20;7.45;;;4.20;;
58123;SDS011;46725;48.068;20.832;2022-07-30T05:09:47;7.43;;;4.57;;
58123;SDS011;46725;48.068;20.832;2022-07-30T05:12:13;6.10;;;4.50;;
58123;SDS011;46725;48.068;20.832;2022-07-30T05:14:40;7.25;;;4.95;;
58123;SDS011;46725;48.068;20.832;2022-07-30T05:17:06;9.00;;;4.80;;
58123;SDS011;46725;48.068;20.832;2022-07-30T05:19:32;7.70;;;5.05;;
58123;SDS011;46725;48.068;20.832;2022-07-30T05:24:24;7.75;;;4.00;;
58123;SDS011;46725;48.068;20.832;2022-07-30T05:26:50;6.30;;;4.25;;
58123;SDS011;46725;48.068;20.832;2022-07-30T05:29:16;7.20;;;4.90;;
58123;SDS011;46725;48.068;20.832;2022-07-30T05:31:42;6.40;;;4.20;;
58123;SDS011;46725;48.068;20.832;2022-07-30T05:34:08;11.10;;;4.60;;
58123;SDS011;46725;48.068;20.832;2022-07-30T05:36:34;5.90;;;4.30;;
58123;SDS011;46725;48.068;20.832;2022-07-30T05:39:01;6.80;;;4.50;;
58123;SDS011;46725;48.068;20.832;2022-07-30T05:41:27;7.95;;;4.55;;
58123;SDS011;46725;48.068;20.832;2022-07-30T05:43:53;7.45;;;4.65;;
58123;SDS011;46725;48.068;20.832;2022-07-30T05:46:19;8.90;;;4.00;;
58123;SDS011;46725;48.068;20.832;2022-07-30T05:48:45;6.40;;;4.30;;
58123;SDS011;46725;48.068;20.832;2022-07-30T05:53:37;7.80;;;3.80;;
58123;SDS011;46725;48.068;20.832;2022-07-30T05:56:03;6.95;;;4.25;;
58123;SDS011;46725;48.068;20.832;2022-07-30T05:58:29;8.35;;;3.95;;
58123;SDS011;46725;48.068;20.832;2022-07-30T06:00:55;6.70;;;4.30;;
58123;SDS011;46725;48.068;20.832;2022-07-30T06:03:21;6.90;;;4.30;;
58123;SDS011;46725;48.068;20.832;2022-07-30T06:05:48;7.40;;;4.35;;
58123;SDS011;46725;48.068;20.832;2022-07-30T06:10:40;6.60;;;3.90;;
58123;SDS011;46725;48.068;20.832;2022-07-30T06:13:06;5.40;;;3.60;;
58123;SDS011;46725;48.068;20.832;2022-07-30T06:15:32;7.10;;;4.60;;
58123;SDS011;46725;48.068;20.832;2022-07-30T06:17:58;7.25;;;4.20;;
58123;SDS011;46725;48.068;20.832;2022-07-30T06:20:24;8.10;;;4.00;;
58123;SDS011;46725;48.068;20.832;2022-07-30T06:22:50;6.55;;;3.80;;
58123;SDS011;46725;48.068;20.832;2022-07-30T06:25:16;5.90;;;3.80;;
58123;SDS011;46725;48.068;20.832;2022-07-30T06:27:42;5.70;;;3.80;;
58123;SDS011;46725;48.068;20.832;2022-07-30T06:30:08;8.10;;;3.70;;
58123;SDS011;46725;48.068;20.832;2022-07-30T06:32:35;7.60;;;3.80;;
58123;SDS011;46725;48.068;20.832;2022-07-30T06:35:02;6.80;;;3.80;;
58123;SDS011;46725;48.068;20.832;2022-07-30T06:37:28;5.60;;;3.70;;
58123;SDS011;46725;48.068;20.832;2022-07-30T06:39:54;6.80;;;4.00;;
58123;SDS011;46725;48.068;20.832;2022-07-30T06:42:20;8.85;;;3.75;;
58123;SDS011;46725;48.068;20.832;2022-07-30T06:44:46;7.93;;;3.40;;
58123;SDS011;46725;48.068;20.832;2022-07-30T06:47:12;6.70;;;3.85;;
58123;SDS011;46725;48.068;20.832;2022-07-30T06:49:38;5.90;;;3.80;;
58123;SDS011;46725;48.068;20.832;2022-07-30T06:52:04;5.70;;;3.60;;
58123;SDS011;46725;48.068;20.832;2022-07-30T06:54:31;6.40;;;3.90;;
58123;SDS011;46725;48.068;20.832;2022-07-30T06:56:57;6.60;;;3.90;;
58123;SDS011;46725;48.068;20.832;2022-07-30T08:31:57;6.15;;;3.75;;
58123;SDS011;46725;48.068;20.832;2022-07-30T08:36:49;9.70;;;4.10;;
58123;SDS011;46725;48.068;20.832;2022-07-30T08:39:15;6.30;;;3.90;;
58123;SDS011;46725;48.068;20.832;2022-07-30T08:44:09;6.25;;;4.20;;
58123;SDS011;46725;48.068;20.832;2022-07-30T08:49:01;8.20;;;3.75;;
58123;SDS011;46725;48.068;20.832;2022-07-30T08:51:27;5.20;;;3.40;;
58123;SDS011;46725;48.068;20.832;2022-07-30T08:53:53;5.85;;;3.70;;
58123;SDS011;46725;48.068;20.832;2022-07-30T08:56:20;5.50;;;3.85;;
58123;SDS011;46725;48.068;20.832;2022-07-30T08:58:46;10.90;;;3.50;;
58123;SDS011;46725;48.068;20.832;2022-07-30T09:01:12;5.85;;;3.25;;
58123;SDS011;46725;48.068;20.832;2022-07-30T09:03:38;5.00;;;3.30;;
58123;SDS011;46725;48.068;20.832;2022-07-30T09:08:30;5.10;;;3.20;;
58123;SDS011;46725;48.068;20.832;2022-07-30T09:10:57;6.55;;;3.15;;
58123;SDS011;46725;48.068;20.832;2022-07-30T09:13:24;5.20;;;3.40;;
58123;SDS011;46725;48.068;20.832;2022-07-30T09:15:51;4.90;;;3.20;;
58123;SDS011;46725;48.068;20.832;2022-07-30T09:18:36;5.85;;;3.60;;
58123;SDS011;46725;48.068;20.832;2022-07-30T09:23:58;11.10;;;3.60;;
58123;SDS011;46725;48.068;20.832;2022-07-30T09:26:25;5.40;;;3.00;;
58123;SDS011;46725;48.068;20.832;2022-07-30T09:28:51;6.60;;;2.73;;
58123;SDS011;46725;48.068;20.832;2022-07-30T09:31:18;11.13;;;2.30;;
58123;SDS011;46725;48.068;20.832;2022-07-30T09:33:44;4.65;;;2.35;;
58123;SDS011;46725;48.068;20.832;2022-07-30T09:36:12;3.90;;;2.10;;
58123;SDS011;46725;48.068;20.832;2022-07-30T09:38:48;4.10;;;2.20;;
58123;SDS011;46725;48.068;20.832;2022-07-30T09:41:16;5.25;;;2.35;;
58123;SDS011;46725;48.068;20.832;2022-07-30T09:43:43;4.50;;;2.10;;
58123;SDS011;46725;48.068;20.832;2022-07-30T09:46:09;4.93;;;2.30;;
58123;SDS011;46725;48.068;20.832;2022-07-30T09:48:36;4.40;;;2.00;;
58123;SDS011;46725;48.068;20.832;2022-07-30T09:51:02;4.90;;;2.25;;
58123;SDS011;46725;48.068;20.832;2022-07-30T09:53:28;4.60;;;2.00;;
58123;SDS011;46725;48.068;20.832;2022-07-30T09:55:56;3.30;;;1.70;;
58123;SDS011;46725;48.068;20.832;2022-07-30T09:58:23;4.00;;;1.70;;
58123;SDS011;46725;48.068;20.832;2022-07-30T10:00:49;3.37;;;1.37;;
58123;SDS011;46725;48.068;20.832;2022-07-30T10:03:21;3.00;;;1.35;;
58123;SDS011;46725;48.068;20.832;2022-07-30T10:08:15;3.10;;;1.40;;
58123;SDS011;46725;48.068;20.832;2022-07-30T10:10:41;3.95;;;1.75;;
58123;SDS011;46725;48.068;20.832;2022-07-30T10:13:08;5.05;;;1.65;;
58123;SDS011;46725;48.068;20.832;2022-07-30T10:15:35;3.23;;;1.50;;
58123;SDS011;46725;48.068;20.832;2022-07-30T10:18:02;4.55;;;1.70;;
58123;SDS011;46725;48.068;20.832;2022-07-30T10:20:29;3.20;;;1.60;;
58123;SDS011;46725;48.068;20.832;2022-07-30T10:22:55;2.70;;;1.30;;
58123;SDS011;46725;48.068;20.832;2022-07-30T10:25:23;2.80;;;1.40;;
58123;SDS011;46725;48.068;20.832;2022-07-30T10:27:50;3.70;;;1.80;;
58123;SDS011;46725;48.068;20.832;2022-07-30T10:30:16;3.75;;;1.60;;
58123;SDS011;46725;48.068;20.832;2022-07-30T10:32:43;4.45;;;1.60;;
58123;SDS011;46725;48.068;20.832;2022-07-30T10:35:10;3.10;;;1.60;;
58123;SDS011;46725;48.068;20.832;2022-07-30T10:37:47;3.10;;;1.60;;
58123;SDS011;46725;48.068;20.832;2022-07-30T10:50:14;2.60;;;1.20;;
58123;SDS011;46725;48.068;20.832;2022-07-30T10:52:44;4.10;;;1.30;;
58123;SDS011;46725;48.068;20.832;2022-07-30T10:55:13;2.95;;;1.20;;
58123;SDS011;46725;48.068;20.832;2022-07-30T11:07:46;3.10;;;1.30;;
58123;SDS011;46725;48.068;20.832;2022-07-30T11:15:04;2.70;;;1.20;;
58123;SDS011;46725;48.068;20.832;2022-07-30T11:24:52;2.80;;;1.40;;
58123;SDS011;46725;48.068;20.832;2022-07-30T11:29:44;4.30;;;1.40;;
58123;SDS011;46725;48.068;20.832;2022-07-30T11:34:38;3.20;;;1.40;;
58123;SDS011;46725;48.068;20.832;2022-07-30T11:42:22;4.70;;;1.30;;
58123;SDS011;46725;48.068;20.832;2022-07-30T11:44:45;2.80;;;1.10;;
58123;SDS011;46725;48.068;20.832;2022-07-30T11:47:11;2.40;;;1.20;;
58123;SDS011;46725;48.068;20.832;2022-07-30T11:49:38;2.00;;;0.90;;
58123;SDS011;46725;48.068;20.832;2022-07-30T11:52:04;2.70;;;1.20;;
58123;SDS011;46725;48.068;20.832;2022-07-30T11:54:31;5.80;;;1.10;;
58123;SDS011;46725;48.068;20.832;2022-07-30T11:59:23;2.85;;;1.30;;
58123;SDS011;46725;48.068;20.832;2022-07-30T12:01:52;2.70;;;1.00;;
58123;SDS011;46725;48.068;20.832;2022-07-30T12:04:23;3.00;;;1.20;;
58123;SDS011;46725;48.068;20.832;2022-07-30T12:06:50;2.50;;;1.10;;
58123;SDS011;46725;48.068;20.832;2022-07-30T12:09:25;7.60;;;1.70;;
58123;SDS011;46725;48.068;20.832;2022-07-30T12:11:54;3.05;;;1.35;;
58123;SDS011;46725;48.068;20.832;2022-07-30T12:14:21;3.80;;;1.65;;
58123;SDS011;46725;48.068;20.832;2022-07-30T12:16:48;3.40;;;1.50;;
58123;SDS011;46725;48.068;20.832;2022-07-30T12:19:15;5.40;;;1.90;;
58123;SDS011;46725;48.068;20.832;2022-07-30T12:21:41;7.50;;;1.80;;
58123;SDS011;46725;48.068;20.832;2022-07-30T12:24:07;4.35;;;2.00;;
58123;SDS011;46725;48.068;20.832;2022-07-30T12:29:01;4.85;;;2.20;;
58123;SDS011;46725;48.068;20.832;2022-07-30T12:31:28;3.00;;;1.60;;
58123;SDS011;46725;48.068;20.832;2022-07-30T12:33:55;4.90;;;2.10;;
58123;SDS011;46725;48.068;20.832;2022-07-30T12:36:25;5.95;;;1.95;;
58123;SDS011;46725;48.068;20.832;2022-07-30T12:38:51;4.80;;;2.10;;
58123;SDS011;46725;48.068;20.832;2022-07-30T12:41:18;3.55;;;1.65;;
58123;SDS011;46725;48.068;20.832;2022-07-30T12:43:53;4.10;;;2.10;;
58123;SDS011;46725;48.068;20.832;2022-07-30T12:46:23;3.60;;;1.80;;
58123;SDS011;46725;48.068;20.832;2022-07-30T12:48:54;3.70;;;1.90;;
58123;SDS011;46725;48.068;20.832;2022-07-30T12:51:22;3.90;;;2.00;;
58123;SDS011;46725;48.068;20.832;2022-07-30T12:53:48;3.60;;;1.80;;
58123;SDS011;46725;48.068;20.832;2022-07-30T12:56:18;4.45;;;1.90;;
58123;SDS011;46725;48.068;20.832;2022-07-30T12:58:44;5.50;;;2.00;;
58123;SDS011;46725;48.068;20.832;2022-07-30T13:01:11;4.30;;;1.80;;
58123;SDS011;46725;48.068;20.832;2022-07-30T13:03:37;4.50;;;2.40;;
58123;SDS011;46725;48.068;20.832;2022-07-30T13:06:11;4.40;;;2.10;;
58123;SDS011;46725;48.068;20.832;2022-07-30T13:16:05;6.00;;;2.50;;
58123;SDS011;46725;48.068;20.832;2022-07-30T13:18:31;5.45;;;2.20;;
58123;SDS011;46725;48.068;20.832;2022-07-30T13:20:58;4.05;;;2.25;;
58123;SDS011;46725;48.068;20.832;2022-07-30T13:23:25;5.40;;;2.70;;
58123;SDS011;46725;48.068;20.832;2022-07-30T13:25:54;8.85;;;3.10;;
58123;SDS011;46725;48.068;20.832;2022-07-30T13:28:20;6.45;;;3.00;;
58123;SDS011;46725;48.068;20.832;2022-07-30T13:38:04;5.80;;;2.80;;
58123;SDS011;46725;48.068;20.832;2022-07-30T16:35:40;9.07;;;6.07;;
58123;SDS011;46725;48.068;20.832;2022-07-30T17:38:58;7.95;;;5.40;;
58123;SDS011;46725;48.068;20.832;2022-07-30T17:41:24;10.90;;;6.10;;
58123;SDS011;46725;48.068;20.832;2022-07-30T17:48:42;8.70;;;5.70;;
58123;SDS011;46725;48.068;20.832;2022-07-30T17:51:08;8.40;;;5.10;;
58123;SDS011;46725;48.068;20.832;2022-07-30T17:53:34;7.40;;;5.30;;
58123;SDS011;46725;48.068;20.832;2022-07-30T18:10:37;9.20;;;6.30;;
58123;SDS011;46725;48.068;20.832;2022-07-30T18:18:01;10.10;;;5.90;;
58123;SDS011;46725;48.068;20.832;2022-07-30T18:20:27;10.60;;;5.75;;
58123;SDS011;46725;48.068;20.832;2022-07-30T18:22:54;7.50;;;5.50;;
58123;SDS011;46725;48.068;20.832;2022-07-30T18:25:21;9.90;;;5.20;;
58123;SDS011;46725;48.068;20.832;2022-07-30T18:27:47;9.50;;;6.00;;
58123;SDS011;46725;48.068;20.832;2022-07-30T18:30:13;9.40;;;5.20;;
58123;SDS011;46725;48.068;20.832;2022-07-30T18:44:49;8.90;;;6.10;;
58123;SDS011;46725;48.068;20.832;2022-07-30T18:52:08;12.70;;;6.80;;
58123;SDS011;46725;48.068;20.832;2022-07-30T18:59:26;10.20;;;7.10;;
58123;SDS011;46725;48.068;20.832;2022-07-30T19:01:52;12.60;;;7.50;;
58123;SDS011;46725;48.068;20.832;2022-07-30T19:04:18;12.20;;;8.30;;
58123;SDS011;46725;48.068;20.832;2022-07-30T19:06:44;11.35;;;7.55;;
58123;SDS011;46725;48.068;20.832;2022-07-30T19:09:10;10.30;;;7.40;;
58123;SDS011;46725;48.068;20.832;2022-07-30T19:11:37;10.50;;;7.90;;
58123;SDS011;46725;48.068;20.832;2022-07-30T19:14:04;11.10;;;7.70;;
58123;SDS011;46725;48.068;20.832;2022-07-30T19:16:30;12.20;;;8.00;;
58123;SDS011;46725;48.068;20.832;2022-07-30T19:26:14;11.70;;;8.10;;
58123;SDS011;46725;48.068;20.832;2022-07-30T19:33:32;12.65;;;8.00;;
58123;SDS011;46725;48.068;20.832;2022-07-30T19:35:58;11.30;;;7.80;;
58123;SDS011;46725;48.068;20.832;2022-07-30T19:38:25;10.90;;;8.25;;
58123;SDS011;46725;48.068;20.832;2022-07-30T19:40:51;11.90;;;8.50;;
58123;SDS011;46725;48.068;20.832;2022-07-30T19:43:17;13.60;;;8.40;;
58123;SDS011;46725;48.068;20.832;2022-07-30T19:50:36;12.90;;;8.90;;
58123;SDS011;46725;48.068;20.832;2022-07-30T20:02:46;14.85;;;10.20;;
58123;SDS011;46725;48.068;20.832;2022-07-30T20:07:38;16.10;;;10.60;;
58123;SDS011;46725;48.068;20.832;2022-07-30T20:10:05;16.95;;;9.60;;
58123;SDS011;46725;48.068;20.832;2022-07-30T20:17:23;14.30;;;9.70;;
58123;SDS011;46725;48.068;20.832;2022-07-30T22:58:02;14.20;;;10.00;;
58123;SDS011;46725;48.068;20.832;2022-07-30T23:00:28;12.85;;;9.15;;
58123;SDS011;46725;48.068;20.832;2022-07-30T23:02:54;13.90;;;8.75;;
58123;SDS011;46725;48.068;20.832;2022-07-30T23:05:21;12.57;;;8.95;;
58123;SDS011;46725;48.068;20.832;2022-07-30T23:07:47;12.07;;;8.75;;
58123;SDS011;46725;48.068;20.832;2022-07-30T23:10:14;10.73;;;7.72;;
58123;SDS011;46725;48.068;20.832;2022-07-30T23:12:41;12.65;;;8.02;;
58123;SDS011;46725;48.068;20.832;2022-07-30T23:15:07;13.30;;;8.75;;
58123;SDS011;46725;48.068;20.832;2022-07-30T23:17:35;13.68;;;9.00;;
58123;SDS011;46725;48.068;20.832;2022-07-30T23:20:03;12.38;;;7.55;;
58123;SDS011;46725;48.068;20.832;2022-07-30T23:22:29;10.02;;;7.68;;
58123;SDS011;46725;48.068;20.832;2022-07-30T23:24:55;14.27;;;8.70;;
58123;SDS011;46725;48.068;20.832;2022-07-30T23:27:21;11.63;;;7.90;;
58123;SDS011;46725;48.068;20.832;2022-07-30T23:29:47;15.07;;;8.23;;
58123;SDS011;46725;48.068;20.832;2022-07-30T23:32:13;9.93;;;7.20;;
58123;SDS011;46725;48.068;20.832;2022-07-30T23:34:39;10.45;;;6.93;;
58123;SDS011;46725;48.068;20.832;2022-07-30T23:37:05;10.70;;;7.18;;
58123;SDS011;46725;48.068;20.832;2022-07-30T23:39:31;10.60;;;6.65;;
58123;SDS011;46725;48.068;20.832;2022-07-30T23:41:57;12.45;;;6.93;;
58123;SDS011;46725;48.068;20.832;2022-07-30T23:44:23;8.93;;;6.22;;
58123;SDS011;46725;48.068;20.832;2022-07-30T23:46:49;8.57;;;6.05;;
58123;SDS011;46725;48.068;20.832;2022-07-30T23:49:15;10.60;;;6.10;;
58123;SDS011;46725;48.068;20.832;2022-07-30T23:51:42;10.45;;;6.20;;
58123;SDS011;46725;48.068;20.832;2022-07-30T23:54:08;8.65;;;6.28;;
58123;SDS011;46725;48.068;20.832;2022-07-30T23:56:34;8.18;;;6.18;;
58123;SDS011;46725;48.068;20.832;2022-07-30T23:59:00;11.18;;;5.95;;
